sensor_id;sensor_type;location;lat;lon;timestamp;temperature;humidity
77496;SHT31;66600;48.378;9.948;2023-04-15T00:00:14;5.07;76.22
77496;SHT31;66600;48.378;9.948;2023-04-15T00:02:40;4.84;77.09
77496;SHT31;66600;48.378;9.948;2023-04-15T00:05:06;4.71;77.74
77496;SHT31;66600;48.378;9.948;2023-04-15T00:07:31;4.59;78.14
77496;SHT31;66600;48.378;9.948;2023-04-15T00:09:57;4.51;78.44
77496;SHT31;66600;48.378;9.948;2023-04-15T00:12:23;4.51;78.46
77496;SHT31;66600;48.378;9.948;2023-04-15T00:14:49;4.40;78.69
77496;SHT31;66600;48.378;9.948;2023-04-15T00:17:15;4.33;78.98
77496;SHT31;66600;48.378;9.948;2023-04-15T00:19:41;4.14;79.10
77496;SHT31;66600;48.378;9.948;2023-04-15T00:22:06;4.04;79.49
77496;SHT31;66600;48.378;9.948;2023-04-15T00:24:32;4.06;79.96
77496;SHT31;66600;48.378;9.948;2023-04-15T00:26:58;4.16;80.01
77496;SHT31;66600;48.378;9.948;2023-04-15T00:29:24;4.06;79.57
77496;SHT31;66600;48.378;9.948;2023-04-15T00:31:49;4.01;79.60
77496;SHT31;66600;48.378;9.948;2023-04-15T00:34:15;4.04;80.36
77496;SHT31;66600;48.378;9.948;2023-04-15T00:36:40;4.03;79.94
77496;SHT31;66600;48.378;9.948;2023-04-15T00:39:06;4.06;80.03
77496;SHT31;66600;48.378;9.948;2023-04-15T00:41:31;4.01;80.10
77496;SHT31;66600;48.378;9.948;2023-04-15T00:43:58;4.04;80.33
77496;SHT31;66600;48.378;9.948;2023-04-15T00:46:26;4.08;80.03
77496;SHT31;66600;48.378;9.948;2023-04-15T00:48:53;4.04;79.66
77496;SHT31;66600;48.378;9.948;2023-04-15T00:51:18;3.93;79.73
77496;SHT31;66600;48.378;9.948;2023-04-15T00:53:44;3.83;80.16
77496;SHT31;66600;48.378;9.948;2023-04-15T00:56:09;3.82;80.22
77496;SHT31;66600;48.378;9.948;2023-04-15T00:58:35;3.80;80.23
77496;SHT31;66600;48.378;9.948;2023-04-15T01:01:01;3.80;80.24
77496;SHT31;66600;48.378;9.948;2023-04-15T01:03:28;3.83;80.39
77496;SHT31;66600;48.378;9.948;2023-04-15T01:05:54;3.90;80.27
77496;SHT31;66600;48.378;9.948;2023-04-15T01:08:26;4.03;79.68
77496;SHT31;66600;48.378;9.948;2023-04-15T01:10:53;4.16;79.16
77496;SHT31;66600;48.378;9.948;2023-04-15T01:13:19;4.28;79.32
77496;SHT31;66600;48.378;9.948;2023-04-15T01:15:46;4.33;79.39
77496;SHT31;66600;48.378;9.948;2023-04-15T01:18:11;4.37;79.20
77496;SHT31;66600;48.378;9.948;2023-04-15T01:20:37;4.38;79.27
77496;SHT31;66600;48.378;9.948;2023-04-15T01:23:03;4.30;78.82
77496;SHT31;66600;48.378;9.948;2023-04-15T01:25:32;4.08;79.59
77496;SHT31;66600;48.378;9.948;2023-04-15T01:27:59;4.11;79.94
77496;SHT31;66600;48.378;9.948;2023-04-15T01:30:24;4.07;80.29
77496;SHT31;66600;48.378;9.948;2023-04-15T01:32:51;4.04;80.13
77496;SHT31;66600;48.378;9.948;2023-04-15T01:35:17;3.90;79.93
77496;SHT31;66600;48.378;9.948;2023-04-15T01:37:43;3.58;80.81
77496;SHT31;66600;48.378;9.948;2023-04-15T01:40:09;3.58;81.34
77496;SHT31;66600;48.378;9.948;2023-04-15T01:42:35;3.55;81.61
77496;SHT31;66600;48.378;9.948;2023-04-15T01:45:00;3.55;81.73
77496;SHT31;66600;48.378;9.948;2023-04-15T01:47:26;3.55;81.32
77496;SHT31;66600;48.378;9.948;2023-04-15T01:49:51;3.45;81.11
77496;SHT31;66600;48.378;9.948;2023-04-15T01:52:17;3.30;81.41
77496;SHT31;66600;48.378;9.948;2023-04-15T01:54:42;3.21;82.03
77496;SHT31;66600;48.378;9.948;2023-04-15T01:57:08;3.30;82.14
77496;SHT31;66600;48.378;9.948;2023-04-15T01:59:34;3.28;81.93
77496;SHT31;66600;48.378;9.948;2023-04-15T02:01:59;3.30;81.88
77496;SHT31;66600;48.378;9.948;2023-04-15T02:04:25;3.24;81.59
77496;SHT31;66600;48.378;9.948;2023-04-15T02:06:52;3.21;81.55
77496;SHT31;66600;48.378;9.948;2023-04-15T02:09:17;3.21;81.76
77496;SHT31;66600;48.378;9.948;2023-04-15T02:11:43;3.18;81.74
77496;SHT31;66600;48.378;9.948;2023-04-15T02:14:09;3.07;81.71
77496;SHT31;66600;48.378;9.948;2023-04-15T02:16:34;3.07;81.70
77496;SHT31;66600;48.378;9.948;2023-04-15T02:19:00;2.99;81.82
77496;SHT31;66600;48.378;9.948;2023-04-15T02:21:26;2.94;82.06
77496;SHT31;66600;48.378;9.948;2023-04-15T02:23:51;2.89;82.03
77496;SHT31;66600;48.378;9.948;2023-04-15T02:26:18;2.79;82.83
77496;SHT31;66600;48.378;9.948;2023-04-15T02:28:43;2.62;83.08
77496;SHT31;66600;48.378;9.948;2023-04-15T02:31:09;2.62;83.14
77496;SHT31;66600;48.378;9.948;2023-04-15T02:33:34;2.55;83.59
77496;SHT31;66600;48.378;9.948;2023-04-15T02:36:01;2.45;84.07
77496;SHT31;66600;48.378;9.948;2023-04-15T02:38:26;2.46;84.23
77496;SHT31;66600;48.378;9.948;2023-04-15T02:40:51;2.41;83.95
77496;SHT31;66600;48.378;9.948;2023-04-15T02:43:17;2.44;83.73
77496;SHT31;66600;48.378;9.948;2023-04-15T02:45:43;2.39;83.92
77496;SHT31;66600;48.378;9.948;2023-04-15T02:48:09;2.37;84.03
77496;SHT31;66600;48.378;9.948;2023-04-15T02:50:35;2.27;84.07
77496;SHT31;66600;48.378;9.948;2023-04-15T02:53:03;2.10;84.62
77496;SHT31;66600;48.378;9.948;2023-04-15T02:55:29;2.08;84.92
77496;SHT31;66600;48.378;9.948;2023-04-15T02:57:55;2.18;84.88
77496;SHT31;66600;48.378;9.948;2023-04-15T03:00:22;2.25;84.65
77496;SHT31;66600;48.378;9.948;2023-04-15T03:02:49;2.34;84.45
77496;SHT31;66600;48.378;9.948;2023-04-15T03:05:20;2.28;83.80
77496;SHT31;66600;48.378;9.948;2023-04-15T03:07:46;2.15;84.02
77496;SHT31;66600;48.378;9.948;2023-04-15T03:10:11;2.04;84.68
77496;SHT31;66600;48.378;9.948;2023-04-15T03:12:37;2.06;85.26
77496;SHT31;66600;48.378;9.948;2023-04-15T03:15:02;2.14;84.88
77496;SHT31;66600;48.378;9.948;2023-04-15T03:17:28;2.24;84.70
77496;SHT31;66600;48.378;9.948;2023-04-15T03:19:53;2.35;84.27
77496;SHT31;66600;48.378;9.948;2023-04-15T03:22:19;2.45;83.97
77496;SHT31;66600;48.378;9.948;2023-04-15T03:24:44;2.37;83.43
77496;SHT31;66600;48.378;9.948;2023-04-15T03:27:09;2.37;83.36
77496;SHT31;66600;48.378;9.948;2023-04-15T03:29:35;2.37;83.46
77496;SHT31;66600;48.378;9.948;2023-04-15T03:32:00;2.35;83.47
77496;SHT31;66600;48.378;9.948;2023-04-15T03:34:26;2.41;83.48
77496;SHT31;66600;48.378;9.948;2023-04-15T03:36:51;2.34;83.72
77496;SHT31;66600;48.378;9.948;2023-04-15T03:39:16;2.38;84.31
77496;SHT31;66600;48.378;9.948;2023-04-15T03:41:42;2.59;84.14
77496;SHT31;66600;48.378;9.948;2023-04-15T03:44:07;2.65;83.62
77496;SHT31;66600;48.378;9.948;2023-04-15T03:46:32;2.63;83.30
77496;SHT31;66600;48.378;9.948;2023-04-15T03:48:58;2.62;83.02
77496;SHT31;66600;48.378;9.948;2023-04-15T03:51:23;2.60;83.11
77496;SHT31;66600;48.378;9.948;2023-04-15T03:53:48;2.53;83.12
77496;SHT31;66600;48.378;9.948;2023-04-15T03:56:14;2.53;82.96
77496;SHT31;66600;48.378;9.948;2023-04-15T03:58:39;2.52;82.81
77496;SHT31;66600;48.378;9.948;2023-04-15T04:01:05;2.48;83.18
77496;SHT31;66600;48.378;9.948;2023-04-15T04:03:30;2.38;83.32
77496;SHT31;66600;48.378;9.948;2023-04-15T04:05:56;2.32;83.48
77496;SHT31;66600;48.378;9.948;2023-04-15T04:08:21;2.31;83.61
77496;SHT31;66600;48.378;9.948;2023-04-15T04:10:47;2.18;83.62
77496;SHT31;66600;48.378;9.948;2023-04-15T04:13:12;2.15;83.48
77496;SHT31;66600;48.378;9.948;2023-04-15T04:15:37;2.13;83.51
77496;SHT31;66600;48.378;9.948;2023-04-15T04:18:03;1.94;83.87
77496;SHT31;66600;48.378;9.948;2023-04-15T04:20:28;1.96;83.83
77496;SHT31;66600;48.378;9.948;2023-04-15T04:22:56;1.90;84.41
77496;SHT31;66600;48.378;9.948;2023-04-15T04:25:21;1.91;84.62
77496;SHT31;66600;48.378;9.948;2023-04-15T04:27:47;1.93;84.45
77496;SHT31;66600;48.378;9.948;2023-04-15T04:30:12;1.90;84.41
77496;SHT31;66600;48.378;9.948;2023-04-15T04:32:37;1.76;84.34
77496;SHT31;66600;48.378;9.948;2023-04-15T04:35:03;1.62;84.65
77496;SHT31;66600;48.378;9.948;2023-04-15T04:37:29;1.49;85.10
77496;SHT31;66600;48.378;9.948;2023-04-15T04:39:54;1.60;85.42
77496;SHT31;66600;48.378;9.948;2023-04-15T04:42:20;1.67;84.99
77496;SHT31;66600;48.378;9.948;2023-04-15T04:44:45;1.67;84.97
77496;SHT31;66600;48.378;9.948;2023-04-15T04:47:11;1.60;84.76
77496;SHT31;66600;48.378;9.948;2023-04-15T04:49:36;1.59;84.68
77496;SHT31;66600;48.378;9.948;2023-04-15T04:52:02;1.62;84.51
77496;SHT31;66600;48.378;9.948;2023-04-15T04:54:27;1.58;84.73
77496;SHT31;66600;48.378;9.948;2023-04-15T04:56:52;1.55;84.83
77496;SHT31;66600;48.378;9.948;2023-04-15T04:59:18;1.48;84.82
77496;SHT31;66600;48.378;9.948;2023-04-15T05:01:43;1.38;85.20
77496;SHT31;66600;48.378;9.948;2023-04-15T05:04:09;1.35;85.46
77496;SHT31;66600;48.378;9.948;2023-04-15T05:06:34;1.34;85.62
77496;SHT31;66600;48.378;9.948;2023-04-15T05:09:01;1.31;85.84
77496;SHT31;66600;48.378;9.948;2023-04-15T05:11:29;1.34;85.96
77496;SHT31;66600;48.378;9.948;2023-04-15T05:13:55;1.32;85.95
77496;SHT31;66600;48.378;9.948;2023-04-15T05:16:22;1.34;86.06
77496;SHT31;66600;48.378;9.948;2023-04-15T05:18:47;1.36;86.00
77496;SHT31;66600;48.378;9.948;2023-04-15T05:21:13;1.35;86.06
77496;SHT31;66600;48.378;9.948;2023-04-15T05:23:38;1.38;86.10
77496;SHT31;66600;48.378;9.948;2023-04-15T05:26:04;1.43;86.04
77496;SHT31;66600;48.378;9.948;2023-04-15T05:28:29;1.56;85.69
77496;SHT31;66600;48.378;9.948;2023-04-15T05:30:55;1.72;85.29
77496;SHT31;66600;48.378;9.948;2023-04-15T05:33:20;1.91;84.78
77496;SHT31;66600;48.378;9.948;2023-04-15T05:35:45;2.14;84.19
77496;SHT31;66600;48.378;9.948;2023-04-15T05:38:11;2.37;83.55
77496;SHT31;66600;48.378;9.948;2023-04-15T05:40:36;2.63;82.89
77496;SHT31;66600;48.378;9.948;2023-04-15T05:43:02;2.89;81.66
77496;SHT31;66600;48.378;9.948;2023-04-15T05:45:27;3.03;81.08
77496;SHT31;66600;48.378;9.948;2023-04-15T05:47:53;3.18;81.02
77496;SHT31;66600;48.378;9.948;2023-04-15T05:50:19;3.28;81.13
77496;SHT31;66600;48.378;9.948;2023-04-15T05:52:45;3.34;80.40
77496;SHT31;66600;48.378;9.948;2023-04-15T05:55:10;3.34;80.24
77496;SHT31;66600;48.378;9.948;2023-04-15T05:57:36;3.35;80.13
77496;SHT31;66600;48.378;9.948;2023-04-15T06:00:03;3.52;79.88
77496;SHT31;66600;48.378;9.948;2023-04-15T06:02:29;3.70;79.05
77496;SHT31;66600;48.378;9.948;2023-04-15T06:04:56;3.52;79.36
77496;SHT31;66600;48.378;9.948;2023-04-15T06:07:22;3.55;79.68
77496;SHT31;66600;48.378;9.948;2023-04-15T06:09:47;3.48;79.66
77496;SHT31;66600;48.378;9.948;2023-04-15T06:12:13;3.30;79.87
77496;SHT31;66600;48.378;9.948;2023-04-15T06:14:39;3.25;80.23
77496;SHT31;66600;48.378;9.948;2023-04-15T06:17:05;3.24;80.11
77496;SHT31;66600;48.378;9.948;2023-04-15T06:19:31;3.25;79.87
77496;SHT31;66600;48.378;9.948;2023-04-15T06:21:57;3.13;80.29
77496;SHT31;66600;48.378;9.948;2023-04-15T06:24:22;3.03;80.25
77496;SHT31;66600;48.378;9.948;2023-04-15T06:26:47;3.07;80.60
77496;SHT31;66600;48.378;9.948;2023-04-15T06:29:13;3.17;80.13
77496;SHT31;66600;48.378;9.948;2023-04-15T06:31:38;3.17;80.45
77496;SHT31;66600;48.378;9.948;2023-04-15T06:34:04;3.24;79.83
77496;SHT31;66600;48.378;9.948;2023-04-15T06:36:29;3.22;79.63
77496;SHT31;66600;48.378;9.948;2023-04-15T06:38:55;3.22;80.15
77496;SHT31;66600;48.378;9.948;2023-04-15T06:41:21;3.36;79.96
77496;SHT31;66600;48.378;9.948;2023-04-15T06:43:46;3.54;79.62
77496;SHT31;66600;48.378;9.948;2023-04-15T06:46:12;3.73;78.63
77496;SHT31;66600;48.378;9.948;2023-04-15T06:48:37;3.85;78.24
77496;SHT31;66600;48.378;9.948;2023-04-15T06:51:03;4.00;78.06
77496;SHT31;66600;48.378;9.948;2023-04-15T06:53:28;4.16;77.76
77496;SHT31;66600;48.378;9.948;2023-04-15T06:55:54;4.22;77.35
77496;SHT31;66600;48.378;9.948;2023-04-15T06:58:19;4.27;77.60
77496;SHT31;66600;48.378;9.948;2023-04-15T07:00:45;4.37;77.39
77496;SHT31;66600;48.378;9.948;2023-04-15T07:03:11;4.55;77.40
77496;SHT31;66600;48.378;9.948;2023-04-15T07:05:37;4.68;76.95
77496;SHT31;66600;48.378;9.948;2023-04-15T07:08:03;4.87;75.89
77496;SHT31;66600;48.378;9.948;2023-04-15T07:10:29;4.96;76.34
77496;SHT31;66600;48.378;9.948;2023-04-15T07:12:55;5.26;75.70
77496;SHT31;66600;48.378;9.948;2023-04-15T07:15:21;5.47;74.98
77496;SHT31;66600;48.378;9.948;2023-04-15T07:17:47;5.51;75.06
77496;SHT31;66600;48.378;9.948;2023-04-15T07:20:13;5.59;74.41
77496;SHT31;66600;48.378;9.948;2023-04-15T07:22:38;5.73;74.54
77496;SHT31;66600;48.378;9.948;2023-04-15T07:25:04;5.80;74.37
77496;SHT31;66600;48.378;9.948;2023-04-15T07:27:30;5.89;74.38
77496;SHT31;66600;48.378;9.948;2023-04-15T07:29:56;6.49;71.87
77496;SHT31;66600;48.378;9.948;2023-04-15T07:32:21;6.81;71.98
77496;SHT31;66600;48.378;9.948;2023-04-15T07:34:47;7.19;70.97
77496;SHT31;66600;48.378;9.948;2023-04-15T07:37:13;7.47;69.87
77496;SHT31;66600;48.378;9.948;2023-04-15T07:39:39;7.86;68.65
77496;SHT31;66600;48.378;9.948;2023-04-15T07:42:04;8.04;67.94
77496;SHT31;66600;48.378;9.948;2023-04-15T07:44:30;8.07;68.62
77496;SHT31;66600;48.378;9.948;2023-04-15T07:46:55;8.29;67.59
77496;SHT31;66600;48.378;9.948;2023-04-15T07:49:28;8.19;68.03
77496;SHT31;66600;48.378;9.948;2023-04-15T07:51:54;8.27;67.81
77496;SHT31;66600;48.378;9.948;2023-04-15T07:54:21;8.51;67.70
77496;SHT31;66600;48.378;9.948;2023-04-15T07:56:49;8.75;66.55
77496;SHT31;66600;48.378;9.948;2023-04-15T07:59:16;8.65;66.45
77496;SHT31;66600;48.378;9.948;2023-04-15T08:01:42;8.60;67.52
77496;SHT31;66600;48.378;9.948;2023-04-15T08:04:08;8.89;66.10
77496;SHT31;66600;48.378;9.948;2023-04-15T08:06:33;9.07;65.33
77496;SHT31;66600;48.378;9.948;2023-04-15T08:08:59;9.24;65.49
77496;SHT31;66600;48.378;9.948;2023-04-15T08:11:24;9.27;65.09
77496;SHT31;66600;48.378;9.948;2023-04-15T08:13:51;9.68;64.63
77496;SHT31;66600;48.378;9.948;2023-04-15T08:16:20;9.72;63.72
77496;SHT31;66600;48.378;9.948;2023-04-15T08:18:47;9.75;63.59
77496;SHT31;66600;48.378;9.948;2023-04-15T08:21:13;9.96;62.76
77496;SHT31;66600;48.378;9.948;2023-04-15T08:23:39;9.95;62.73
77496;SHT31;66600;48.378;9.948;2023-04-15T08:26:04;10.09;62.77
77496;SHT31;66600;48.378;9.948;2023-04-15T08:28:30;9.78;64.10
77496;SHT31;66600;48.378;9.948;2023-04-15T08:30:56;9.85;63.79
77496;SHT31;66600;48.378;9.948;2023-04-15T08:33:21;9.75;63.61
77496;SHT31;66600;48.378;9.948;2023-04-15T08:35:47;9.82;64.23
77496;SHT31;66600;48.378;9.948;2023-04-15T08:38:13;10.10;63.84
77496;SHT31;66600;48.378;9.948;2023-04-15T08:40:45;10.23;62.44
77496;SHT31;66600;48.378;9.948;2023-04-15T08:43:17;10.03;63.74
77496;SHT31;66600;48.378;9.948;2023-04-15T08:45:51;10.14;62.56
77496;SHT31;66600;48.378;9.948;2023-04-15T08:48:17;10.30;62.56
77496;SHT31;66600;48.378;9.948;2023-04-15T08:50:44;10.54;61.56
77496;SHT31;66600;48.378;9.948;2023-04-15T08:53:14;10.65;61.78
77496;SHT31;66600;48.378;9.948;2023-04-15T08:55:44;10.84;60.76
77496;SHT31;66600;48.378;9.948;2023-04-15T08:58:11;10.95;60.60
77496;SHT31;66600;48.378;9.948;2023-04-15T09:00:38;11.05;60.07
77496;SHT31;66600;48.378;9.948;2023-04-15T09:03:09;11.47;58.93
77496;SHT31;66600;48.378;9.948;2023-04-15T09:05:36;11.56;59.13
77496;SHT31;66600;48.378;9.948;2023-04-15T09:08:01;11.87;58.44
77496;SHT31;66600;48.378;9.948;2023-04-15T09:10:28;11.61;58.26
77496;SHT31;66600;48.378;9.948;2023-04-15T09:12:54;12.11;58.61
77496;SHT31;66600;48.378;9.948;2023-04-15T09:15:20;12.42;56.43
77496;SHT31;66600;48.378;9.948;2023-04-15T09:17:45;12.26;56.81
77496;SHT31;66600;48.378;9.948;2023-04-15T09:20:16;12.56;56.46
77496;SHT31;66600;48.378;9.948;2023-04-15T09:22:46;12.28;56.27
77496;SHT31;66600;48.378;9.948;2023-04-15T09:27:57;12.80;54.92
77496;SHT31;66600;48.378;9.948;2023-04-15T09:30:23;12.93;53.18
77496;SHT31;66600;48.378;9.948;2023-04-15T09:35:18;13.98;51.92
77496;SHT31;66600;48.378;9.948;2023-04-15T09:37:43;13.70;50.59
77496;SHT31;66600;48.378;9.948;2023-04-15T09:40:10;14.10;48.33
77496;SHT31;66600;48.378;9.948;2023-04-15T09:42:35;13.31;51.64
77496;SHT31;66600;48.378;9.948;2023-04-15T09:45:10;12.73;52.88
77496;SHT31;66600;48.378;9.948;2023-04-15T09:47:36;12.84;52.16
77496;SHT31;66600;48.378;9.948;2023-04-15T09:50:02;13.12;52.74
77496;SHT31;66600;48.378;9.948;2023-04-15T09:52:28;13.38;50.63
77496;SHT31;66600;48.378;9.948;2023-04-15T09:54:54;12.73;51.49
77496;SHT31;66600;48.378;9.948;2023-04-15T09:57:22;13.28;46.43
77496;SHT31;66600;48.378;9.948;2023-04-15T09:59:49;13.19;40.20
77496;SHT31;66600;48.378;9.948;2023-04-15T10:02:14;12.63;41.17
77496;SHT31;66600;48.378;9.948;2023-04-15T10:04:40;12.26;42.84
77496;SHT31;66600;48.378;9.948;2023-04-15T10:07:07;12.45;43.41
77496;SHT31;66600;48.378;9.948;2023-04-15T10:12:18;13.02;42.07
77496;SHT31;66600;48.378;9.948;2023-04-15T10:14:44;13.11;39.04
77496;SHT31;66600;48.378;9.948;2023-04-15T10:17:12;12.81;40.58
77496;SHT31;66600;48.378;9.948;2023-04-15T10:19:40;12.66;39.08
77496;SHT31;66600;48.378;9.948;2023-04-15T10:24:37;12.66;43.82
77496;SHT31;66600;48.378;9.948;2023-04-15T10:27:04;12.35;44.52
77496;SHT31;66600;48.378;9.948;2023-04-15T10:29:30;12.39;45.04
77496;SHT31;66600;48.378;9.948;2023-04-15T10:31:55;12.32;43.73
77496;SHT31;66600;48.378;9.948;2023-04-15T10:34:22;12.37;45.01
77496;SHT31;66600;48.378;9.948;2023-04-15T10:36:48;12.30;45.62
77496;SHT31;66600;48.378;9.948;2023-04-15T10:42:09;12.46;44.75
77496;SHT31;66600;48.378;9.948;2023-04-15T10:44:36;12.83;43.69
77496;SHT31;66600;48.378;9.948;2023-04-15T10:47:09;13.00;43.71
77496;SHT31;66600;48.378;9.948;2023-04-15T10:49:42;12.98;42.44
77496;SHT31;66600;48.378;9.948;2023-04-15T10:52:09;12.39;44.22
77496;SHT31;66600;48.378;9.948;2023-04-15T10:54:34;12.93;42.41
77496;SHT31;66600;48.378;9.948;2023-04-15T10:59:31;13.71;42.98
77496;SHT31;66600;48.378;9.948;2023-04-15T11:02:04;13.40;41.82
77496;SHT31;66600;48.378;9.948;2023-04-15T11:10:01;13.31;40.14
77496;SHT31;66600;48.378;9.948;2023-04-15T11:12:34;13.78;39.52
77496;SHT31;66600;48.378;9.948;2023-04-15T11:15:26;13.26;42.69
77496;SHT31;66600;48.378;9.948;2023-04-15T11:17:54;13.59;42.92
77496;SHT31;66600;48.378;9.948;2023-04-15T11:20:19;14.14;42.17
77496;SHT31;66600;48.378;9.948;2023-04-15T11:22:54;14.48;41.50
77496;SHT31;66600;48.378;9.948;2023-04-15T11:25:28;14.22;39.42
77496;SHT31;66600;48.378;9.948;2023-04-15T11:27:54;13.59;41.19
77496;SHT31;66600;48.378;9.948;2023-04-15T11:30:25;12.77;43.74
77496;SHT31;66600;48.378;9.948;2023-04-15T11:32:52;13.32;42.22
77496;SHT31;66600;48.378;9.948;2023-04-15T11:35:18;13.66;40.86
77496;SHT31;66600;48.378;9.948;2023-04-15T11:37:44;13.55;39.20
77496;SHT31;66600;48.378;9.948;2023-04-15T11:40:10;12.95;41.56
77496;SHT31;66600;48.378;9.948;2023-04-15T11:42:36;12.80;41.83
77496;SHT31;66600;48.378;9.948;2023-04-15T11:47:34;11.95;43.98
77496;SHT31;66600;48.378;9.948;2023-04-15T11:50:22;11.74;46.94
77496;SHT31;66600;48.378;9.948;2023-04-15T11:52:59;11.57;51.72
77496;SHT31;66600;48.378;9.948;2023-04-15T11:55:25;10.68;51.41
77496;SHT31;66600;48.378;9.948;2023-04-15T11:58:13;10.51;51.26
77496;SHT31;66600;48.378;9.948;2023-04-15T12:00:44;10.98;51.67
77496;SHT31;66600;48.378;9.948;2023-04-15T12:03:27;11.46;46.87
77496;SHT31;66600;48.378;9.948;2023-04-15T12:06:11;11.69;46.81
77496;SHT31;66600;48.378;9.948;2023-04-15T12:14:30;12.01;46.69
77496;SHT31;66600;48.378;9.948;2023-04-15T12:17:01;12.32;46.15
77496;SHT31;66600;48.378;9.948;2023-04-15T12:19:34;12.02;45.12
77496;SHT31;66600;48.378;9.948;2023-04-15T12:22:13;11.91;46.98
77496;SHT31;66600;48.378;9.948;2023-04-15T12:24:40;11.81;51.89
77496;SHT31;66600;48.378;9.948;2023-04-15T12:27:10;11.81;53.07
77496;SHT31;66600;48.378;9.948;2023-04-15T12:29:37;11.98;52.34
77496;SHT31;66600;48.378;9.948;2023-04-15T12:32:11;12.15;52.20
77496;SHT31;66600;48.378;9.948;2023-04-15T12:34:39;11.40;54.20
77496;SHT31;66600;48.378;9.948;2023-04-15T12:37:07;11.70;53.79
77496;SHT31;66600;48.378;9.948;2023-04-15T12:39:38;11.36;53.69
77496;SHT31;66600;48.378;9.948;2023-04-15T12:42:04;11.52;54.55
77496;SHT31;66600;48.378;9.948;2023-04-15T12:44:30;11.88;53.28
77496;SHT31;66600;48.378;9.948;2023-04-15T12:46:57;11.47;53.34
77496;SHT31;66600;48.378;9.948;2023-04-15T12:49:24;11.08;55.16
77496;SHT31;66600;48.378;9.948;2023-04-15T12:51:53;11.37;54.07
77496;SHT31;66600;48.378;9.948;2023-04-15T12:54:19;11.23;54.27
77496;SHT31;66600;48.378;9.948;2023-04-15T12:56:45;11.67;53.30
77496;SHT31;66600;48.378;9.948;2023-04-15T12:59:11;12.09;52.84
77496;SHT31;66600;48.378;9.948;2023-04-15T13:01:37;11.50;51.60
77496;SHT31;66600;48.378;9.948;2023-04-15T13:04:03;11.43;53.14
77496;SHT31;66600;48.378;9.948;2023-04-15T13:06:28;11.47;51.34
77496;SHT31;66600;48.378;9.948;2023-04-15T13:08:54;11.47;52.29
77496;SHT31;66600;48.378;9.948;2023-04-15T13:11:21;11.73;52.05
77496;SHT31;66600;48.378;9.948;2023-04-15T13:13:46;11.90;52.07
77496;SHT31;66600;48.378;9.948;2023-04-15T13:16:12;11.98;52.27
77496;SHT31;66600;48.378;9.948;2023-04-15T13:18:37;12.45;51.38
77496;SHT31;66600;48.378;9.948;2023-04-15T13:21:02;11.98;49.92
77496;SHT31;66600;48.378;9.948;2023-04-15T13:23:28;11.40;51.55
77496;SHT31;66600;48.378;9.948;2023-04-15T13:25:53;10.84;53.64
77496;SHT31;66600;48.378;9.948;2023-04-15T13:28:18;10.91;52.83
77496;SHT31;66600;48.378;9.948;2023-04-15T13:30:44;10.81;52.79
77496;SHT31;66600;48.378;9.948;2023-04-15T13:33:10;10.61;54.25
77496;SHT31;66600;48.378;9.948;2023-04-15T13:35:36;10.91;55.68
77496;SHT31;66600;48.378;9.948;2023-04-15T13:38:01;10.85;56.17
77496;SHT31;66600;48.378;9.948;2023-04-15T13:40:27;10.74;54.38
77496;SHT31;66600;48.378;9.948;2023-04-15T13:42:52;10.67;55.41
77496;SHT31;66600;48.378;9.948;2023-04-15T13:45:17;10.09;57.73
77496;SHT31;66600;48.378;9.948;2023-04-15T13:47:43;9.47;60.49
77496;SHT31;66600;48.378;9.948;2023-04-15T13:50:09;9.17;65.43
77496;SHT31;66600;48.378;9.948;2023-04-15T13:52:34;9.06;68.34
77496;SHT31;66600;48.378;9.948;2023-04-15T13:54:59;8.73;68.74
77496;SHT31;66600;48.378;9.948;2023-04-15T13:57:25;8.55;69.48
77496;SHT31;66600;48.378;9.948;2023-04-15T13:59:50;8.58;67.98
77496;SHT31;66600;48.378;9.948;2023-04-15T14:02:15;8.60;68.58
77496;SHT31;66600;48.378;9.948;2023-04-15T14:04:41;8.47;68.88
77496;SHT31;66600;48.378;9.948;2023-04-15T14:07:06;8.48;69.28
77496;SHT31;66600;48.378;9.948;2023-04-15T14:09:31;8.60;69.71
77496;SHT31;66600;48.378;9.948;2023-04-15T14:11:57;8.47;68.35
77496;SHT31;66600;48.378;9.948;2023-04-15T14:14:24;8.51;68.62
77496;SHT31;66600;48.378;9.948;2023-04-15T14:16:49;8.38;68.01
77496;SHT31;66600;48.378;9.948;2023-04-15T14:19:15;8.27;70.70
77496;SHT31;66600;48.378;9.948;2023-04-15T14:21:40;8.00;70.95
77496;SHT31;66600;48.378;9.948;2023-04-15T14:24:05;7.74;73.60
77496;SHT31;66600;48.378;9.948;2023-04-15T14:26:31;7.37;74.47
77496;SHT31;66600;48.378;9.948;2023-04-15T14:28:56;7.26;76.50
77496;SHT31;66600;48.378;9.948;2023-04-15T14:31:21;7.14;75.60
77496;SHT31;66600;48.378;9.948;2023-04-15T14:33:47;7.01;75.57
77496;SHT31;66600;48.378;9.948;2023-04-15T14:36:12;6.93;75.64
77496;SHT31;66600;48.378;9.948;2023-04-15T14:38:37;6.97;76.40
77496;SHT31;66600;48.378;9.948;2023-04-15T14:41:05;7.01;75.61
77496;SHT31;66600;48.378;9.948;2023-04-15T14:43:30;7.06;73.80
77496;SHT31;66600;48.378;9.948;2023-04-15T14:45:56;6.97;74.86
77496;SHT31;66600;48.378;9.948;2023-04-15T14:48:21;7.04;74.38
77496;SHT31;66600;48.378;9.948;2023-04-15T14:50:46;6.99;74.30
77496;SHT31;66600;48.378;9.948;2023-04-15T14:53:12;7.07;74.98
77496;SHT31;66600;48.378;9.948;2023-04-15T14:55:37;7.04;73.61
77496;SHT31;66600;48.378;9.948;2023-04-15T14:58:02;7.11;74.06
77496;SHT31;66600;48.378;9.948;2023-04-15T15:00:28;7.13;73.78
77496;SHT31;66600;48.378;9.948;2023-04-15T15:02:54;7.14;71.71
77496;SHT31;66600;48.378;9.948;2023-04-15T15:05:19;7.23;70.67
77496;SHT31;66600;48.378;9.948;2023-04-15T15:07:48;7.26;68.75
77496;SHT31;66600;48.378;9.948;2023-04-15T15:10:13;7.31;68.42
77496;SHT31;66600;48.378;9.948;2023-04-15T15:12:39;7.34;69.05
77496;SHT31;66600;48.378;9.948;2023-04-15T15:15:04;7.46;68.25
77496;SHT31;66600;48.378;9.948;2023-04-15T15:17:30;7.52;67.20
77496;SHT31;66600;48.378;9.948;2023-04-15T15:19:56;7.54;68.13
77496;SHT31;66600;48.378;9.948;2023-04-15T15:22:21;7.57;70.22
77496;SHT31;66600;48.378;9.948;2023-04-15T15:24:47;7.59;66.68
77496;SHT31;66600;48.378;9.948;2023-04-15T15:27:12;7.65;66.69
77496;SHT31;66600;48.378;9.948;2023-04-15T15:29:38;7.68;65.34
77496;SHT31;66600;48.378;9.948;2023-04-15T15:32:03;7.65;66.07
77496;SHT31;66600;48.378;9.948;2023-04-15T15:34:29;7.65;65.43
77496;SHT31;66600;48.378;9.948;2023-04-15T15:36:54;7.64;65.74
77496;SHT31;66600;48.378;9.948;2023-04-15T15:39:24;7.65;65.83
77496;SHT31;66600;48.378;9.948;2023-04-15T15:41:49;7.72;64.19
77496;SHT31;66600;48.378;9.948;2023-04-15T15:44:15;7.74;66.89
77496;SHT31;66600;48.378;9.948;2023-04-15T15:46:40;7.81;62.43
77496;SHT31;66600;48.378;9.948;2023-04-15T15:49:06;7.79;64.19
77496;SHT31;66600;48.378;9.948;2023-04-15T15:51:31;7.83;62.57
77496;SHT31;66600;48.378;9.948;2023-04-15T15:53:57;7.87;61.01
77496;SHT31;66600;48.378;9.948;2023-04-15T15:56:22;7.95;61.74
77496;SHT31;66600;48.378;9.948;2023-04-15T15:58:47;7.92;60.53
77496;SHT31;66600;48.378;9.948;2023-04-15T16:01:13;7.90;64.02
77496;SHT31;66600;48.378;9.948;2023-04-15T16:03:38;7.90;61.41
77496;SHT31;66600;48.378;9.948;2023-04-15T16:06:04;7.85;60.85